createdAt,value
2023-05-11T00:00:11.363Z,96107.66
2023-05-11T00:02:40.238Z,96107.66
2023-05-11T00:05:09.415Z,96101.19
2023-05-11T00:07:38.076Z,96103.66
2023-05-11T00:10:07.537Z,96106.13
2023-05-11T00:12:36.695Z,96101.47
2023-05-11T00:15:05.774Z,96106.59
2023-05-11T00:17:35.522Z,96090.25
2023-05-11T00:20:04.358Z,96094.25
2023-05-11T00:22:32.670Z,96091.78
2023-05-11T00:25:01.031Z,96095.41
2023-05-11T00:27:29.390Z,96088.47
2023-05-11T00:29:58.133Z,96086.19
2023-05-11T00:32:28.103Z,96091.47
2023-05-11T00:34:57.838Z,96093.31
2023-05-11T00:37:29.558Z,96088.34
2023-05-11T00:39:57.931Z,96086.09
2023-05-11T00:42:28.498Z,96087.06
2023-05-11T00:44:56.864Z,96079.50
2023-05-11T00:47:27.718Z,96077.28
2023-05-11T00:49:57.821Z,96075.31
2023-05-11T00:52:28.737Z,96077.97
2023-05-11T00:54:57.099Z,96084.25
2023-05-11T00:57:26.908Z,96081.78
2023-05-11T00:59:55.256Z,96077.28
2023-05-11T01:02:23.812Z,96076.13
2023-05-11T01:04:52.880Z,96069.66
2023-05-11T01:07:28.199Z,96070.03
2023-05-11T01:10:02.417Z,96065.72
2023-05-11T01:12:37.361Z,96076.47
2023-05-11T01:15:11.732Z,96071.34
2023-05-11T01:17:47.319Z,96072.38
2023-05-11T01:20:19.918Z,96063.63
2023-05-11T01:23:18.152Z,96067.72
2023-05-11T01:26:22.290Z,96071.56
2023-05-11T01:29:11.758Z,96064.06
2023-05-11T01:31:43.992Z,96063.72
2023-05-11T01:34:18.179Z,96063.72
2023-05-11T01:36:53.399Z,96066.03
2023-05-11T01:39:36.324Z,96067.47
2023-05-11T01:42:09.377Z,96067.31
2023-05-11T01:44:41.101Z,96067.31
2023-05-11T01:47:12.997Z,96068.13
2023-05-11T01:49:45.068Z,96063.63
2023-05-11T01:52:15.402Z,96060.00
2023-05-11T01:54:45.623Z,96062.47
2023-05-11T01:57:15.121Z,96064.47
2023-05-11T01:59:43.877Z,96061.19
2023-05-11T02:02:16.609Z,96061.19
2023-05-11T02:04:45.877Z,96062.72
2023-05-11T02:07:17.376Z,96062.59
2023-05-11T02:09:47.025Z,96062.34
2023-05-11T02:12:18.930Z,96059.56
2023-05-11T02:14:48.601Z,96067.41
2023-05-11T02:17:31.658Z,96053.38
2023-05-11T02:20:01.996Z,96058.84
2023-05-11T02:22:31.931Z,96064.78
2023-05-11T02:25:00.336Z,96073.91
2023-05-11T02:27:29.192Z,96067.16
2023-05-11T02:29:57.654Z,96063.50
2023-05-11T02:32:31.881Z,96062.69
2023-05-11T02:35:06.408Z,96053.94
2023-05-11T02:37:40.499Z,96058.56
2023-05-11T02:40:16.487Z,96058.38
2023-05-11T02:42:49.961Z,96056.75
2023-05-11T02:45:20.499Z,96059.38
2023-05-11T02:47:55.178Z,96054.09
2023-05-11T02:50:25.594Z,96055.44
2023-05-11T02:52:57.981Z,96052.97
2023-05-11T02:55:31.038Z,96043.19
2023-05-11T02:57:59.888Z,96040.75
2023-05-11T03:00:29.647Z,96043.28
2023-05-11T03:02:59.793Z,96042.44
2023-05-11T03:05:29.603Z,96039.00
2023-05-11T03:08:00.590Z,96039.97
2023-05-11T03:10:30.166Z,96040.31
2023-05-11T03:12:58.982Z,96043.63
2023-05-11T03:15:29.611Z,96044.28
2023-05-11T03:18:01.149Z,96039.81
2023-05-11T03:20:32.835Z,96044.28
2023-05-11T03:23:02.631Z,96035.34
2023-05-11T03:25:31.314Z,96034.69
2023-05-11T03:28:01.513Z,96028.91
2023-05-11T03:30:31.094Z,96031.72
2023-05-11T03:33:00.926Z,96028.81
2023-05-11T03:35:32.411Z,96029.53
2023-05-11T03:38:01.305Z,96027.50
2023-05-11T03:40:33.379Z,96028.53
2023-05-11T03:43:05.115Z,96028.88
2023-05-11T03:45:35.033Z,96029.22
2023-05-11T03:48:06.146Z,96030.22
2023-05-11T03:50:35.452Z,96031.03
2023-05-11T03:53:05.430Z,96032.03
2023-05-11T03:55:34.037Z,96037.16
2023-05-11T03:58:04.264Z,96029.03
2023-05-11T04:00:33.011Z,96029.50
2023-05-11T04:03:06.228Z,96030.66
2023-05-11T04:05:34.723Z,96031.16
2023-05-11T04:08:04.114Z,96025.69
2023-05-11T04:10:32.612Z,96028.16
2023-05-11T04:13:00.967Z,96037.91
2023-05-11T04:15:30.987Z,96035.47
2023-05-11T04:17:59.380Z,96040.38
2023-05-11T04:20:30.707Z,96044.31
2023-05-11T04:22:59.075Z,96037.88
2023-05-11T04:25:28.881Z,96040.16
2023-05-11T04:27:57.357Z,96039.34
2023-05-11T04:30:25.762Z,96040.16
2023-05-11T04:32:54.309Z,96040.16
2023-05-11T04:35:23.727Z,96038.84
2023-05-11T04:37:53.413Z,96041.66
2023-05-11T04:40:21.787Z,96048.16
2023-05-11T04:42:51.768Z,96043.06
2023-05-11T04:45:20.365Z,96046.88
2023-05-11T04:47:48.786Z,96054.63
2023-05-11T04:50:17.475Z,96047.84
2023-05-11T04:52:46.184Z,96050.50
2023-05-11T04:55:16.256Z,96053.97
2023-05-11T04:57:44.630Z,96051.81
2023-05-11T05:00:13.579Z,96047.72
2023-05-11T05:02:42.057Z,96051.00
2023-05-11T05:05:11.310Z,96043.91
2023-05-11T05:07:41.223Z,96054.63
2023-05-11T05:10:12.052Z,96045.38
2023-05-11T05:12:41.938Z,96054.50
2023-05-11T05:15:11.433Z,96052.38
2023-05-11T05:17:39.839Z,96055.34
2023-05-11T05:20:09.426Z,96054.53
2023-05-11T05:22:37.818Z,96055.03
2023-05-11T05:25:07.045Z,96061.66
2023-05-11T05:27:35.763Z,96057.41
2023-05-11T05:30:06.696Z,96055.75
2023-05-11T05:32:35.079Z,96061.03
2023-05-11T05:35:04.112Z,96061.38
2023-05-11T05:37:32.845Z,96057.25
2023-05-11T05:40:01.172Z,96062.19
2023-05-11T05:42:32.404Z,96062.84
2023-05-11T05:45:00.931Z,96063.66
2023-05-11T05:47:31.196Z,96057.56
2023-05-11T05:49:59.679Z,96070.94
2023-05-11T05:52:28.061Z,96064.84
2023-05-11T05:54:56.503Z,96067.50
2023-05-11T05:57:25.018Z,96063.03
2023-05-11T05:59:53.423Z,96077.53
2023-05-11T06:02:21.918Z,96064.69
2023-05-11T06:04:51.735Z,96072.59
2023-05-11T06:07:20.156Z,96066.47
2023-05-11T06:09:48.505Z,96069.59
2023-05-11T06:12:16.874Z,96072.09
2023-05-11T06:14:45.231Z,96070.13
2023-05-11T06:17:13.624Z,96073.44
2023-05-11T06:19:42.533Z,96078.38
2023-05-11T06:22:12.254Z,96078.84
2023-05-11T06:24:40.628Z,96081.47
2023-05-11T06:27:09.158Z,96078.19
2023-05-11T06:29:38.234Z,96079.03
2023-05-11T06:32:07.432Z,96076.38
2023-05-11T06:34:35.890Z,96083.13
2023-05-11T06:37:04.379Z,96075.22
2023-05-11T06:39:37.643Z,96084.78
2023-05-11T06:42:06.928Z,96084.44
2023-05-11T06:44:38.631Z,96089.56
2023-05-11T06:47:08.231Z,96079.16
2023-05-11T06:49:36.924Z,96079.81
2023-05-11T06:52:05.324Z,96078.81
2023-05-11T06:54:43.969Z,96087.03
2023-05-11T06:57:14.416Z,96079.44
2023-05-11T06:59:44.004Z,96076.81
2023-05-11T07:02:12.480Z,96083.72
2023-05-11T07:04:40.888Z,96083.72
2023-05-11T07:07:11.280Z,96075.97
2023-05-11T07:09:41.902Z,96078.09
2023-05-11T07:12:12.169Z,96076.41
2023-05-11T07:14:40.548Z,96084.34
2023-05-11T07:17:09.305Z,96072.47
2023-05-11T07:19:37.732Z,96077.41
2023-05-11T07:22:06.239Z,96077.41
2023-05-11T07:24:34.674Z,96080.06
2023-05-11T07:27:03.030Z,96084.34
2023-05-11T07:29:32.939Z,96076.06
2023-05-11T07:32:01.385Z,96074.25
2023-05-11T07:34:31.495Z,96080.00
2023-05-11T07:36:59.984Z,96080.84
2023-05-11T07:39:28.365Z,96068.75
2023-05-11T07:41:56.776Z,96076.53
2023-05-11T07:44:35.069Z,96071.88
2023-05-11T07:47:03.460Z,96082.63
2023-05-11T07:49:42.877Z,96079.34
2023-05-11T07:52:12.162Z,96077.41
2023-05-11T07:54:40.985Z,96079.88
2023-05-11T07:57:11.320Z,96078.69
2023-05-11T07:59:41.636Z,96084.00
2023-05-11T08:02:12.933Z,96082.19
2023-05-11T08:04:41.894Z,96083.66
2023-05-11T08:07:10.330Z,96079.81
2023-05-11T08:09:38.816Z,96085.25
2023-05-11T08:12:07.496Z,96089.84
2023-05-11T08:14:36.121Z,96079.75
2023-05-11T08:17:06.353Z,96076.88
2023-05-11T08:19:34.822Z,96073.72
2023-05-11T08:22:03.280Z,96080.78
2023-05-11T08:24:33.489Z,96074.78
2023-05-11T08:27:02.805Z,96075.19
2023-05-11T08:29:32.690Z,96079.25
2023-05-11T08:32:01.342Z,96076.16
2023-05-11T08:34:33.683Z,96069.97
2023-05-11T08:37:03.043Z,96072.72
2023-05-11T08:39:46.095Z,96070.00
2023-05-11T08:42:17.681Z,96068.91
2023-05-11T08:44:46.213Z,96070.56
2023-05-11T08:47:21.868Z,96073.22
2023-05-11T08:49:54.079Z,96070.34
2023-05-11T08:52:22.508Z,96074.72
2023-05-11T08:54:51.077Z,96073.78
2023-05-11T08:57:20.295Z,96066.72
2023-05-11T08:59:50.329Z,96069.19
2023-05-11T09:02:20.989Z,96065.16
2023-05-11T09:04:52.834Z,96062.16
2023-05-11T09:07:22.910Z,96062.78
2023-05-11T09:09:51.324Z,96057.53
2023-05-11T09:12:20.757Z,96066.81
2023-05-11T09:14:49.574Z,96060.47
2023-05-11T09:17:18.032Z,96060.91
2023-05-11T09:20:01.125Z,96060.97
2023-05-11T09:22:32.067Z,96065.75
2023-05-11T09:25:03.568Z,96063.53
2023-05-11T09:27:34.163Z,96059.63
2023-05-11T09:30:12.425Z,96058.16
2023-05-11T09:32:51.741Z,96051.56
2023-05-11T09:35:25.733Z,96063.56
2023-05-11T09:38:06.391Z,96057.81
2023-05-11T09:40:36.849Z,96054.72
2023-05-11T09:43:17.228Z,96052.69
2023-05-11T09:45:47.380Z,96052.97
2023-05-11T09:48:26.893Z,96051.94
2023-05-11T09:51:03.490Z,96049.28
2023-05-11T09:53:40.917Z,96048.09
2023-05-11T09:56:09.960Z,96045.81
2023-05-11T09:58:54.418Z,96048.03
2023-05-11T10:01:30.955Z,96044.94
2023-05-11T10:04:17.782Z,96054.72
2023-05-11T10:06:53.015Z,96055.97
2023-05-11T10:09:25.557Z,96047.47
2023-05-11T10:11:54.948Z,96052.22
2023-05-11T10:14:25.441Z,96046.72
2023-05-11T10:16:54.980Z,96037.94
2023-05-11T10:19:23.690Z,96047.53
2023-05-11T10:21:54.470Z,96042.31
2023-05-11T10:24:23.201Z,96051.34
2023-05-11T10:26:52.014Z,96048.94
2023-05-11T10:29:20.825Z,96048.81
2023-05-11T10:31:51.120Z,96045.16
2023-05-11T10:34:23.268Z,96040.75
2023-05-11T10:36:53.923Z,96046.03
2023-05-11T10:39:22.730Z,96042.56
2023-05-11T10:42:04.566Z,96043.50
2023-05-11T10:44:57.299Z,96036.31
2023-05-11T10:47:47.575Z,96041.00
2023-05-11T10:50:29.438Z,96033.03
2023-05-11T10:53:23.500Z,96035.59
2023-05-11T10:56:10.103Z,96036.03
2023-05-11T10:58:59.113Z,96034.69
2023-05-11T11:01:38.220Z,96031.22
2023-05-11T11:04:09.080Z,96033.56
2023-05-11T11:06:39.047Z,96031.84
2023-05-11T11:09:13.615Z,96028.13
2023-05-11T11:11:46.030Z,96037.19
2023-05-11T11:14:16.307Z,96022.97
2023-05-11T11:17:23.993Z,96026.53
2023-05-11T11:19:52.588Z,96024.13
2023-05-11T11:22:47.509Z,96032.84
2023-05-11T11:25:54.077Z,96027.44
2023-05-11T11:28:22.565Z,96028.97
2023-05-11T11:31:27.625Z,96026.16
2023-05-11T11:33:58.999Z,96027.44
2023-05-11T11:37:03.732Z,96023.97
2023-05-11T11:40:09.016Z,96024.03
2023-05-11T11:42:44.766Z,96020.22
2023-05-11T11:45:34.770Z,96013.53
2023-05-11T11:48:13.294Z,96021.22
2023-05-11T11:50:46.983Z,96024.81
2023-05-11T11:53:53.056Z,96020.22
2023-05-11T11:56:41.507Z,96016.75
2023-05-11T11:59:14.126Z,96018.75
2023-05-11T12:01:43.987Z,96027.44
2023-05-11T12:04:42.045Z,96018.28
2023-05-11T12:07:13.321Z,96029.97
2023-05-11T12:09:44.690Z,96028.59
2023-05-11T12:12:13.812Z,96028.41
2023-05-11T12:14:49.075Z,96031.19
2023-05-11T12:17:25.585Z,96020.38
2023-05-11T12:19:54.096Z,96029.25
2023-05-11T12:22:26.608Z,96037.59
2023-05-11T12:25:00.510Z,96026.88
2023-05-11T12:27:29.142Z,96025.72
2023-05-11T12:29:59.592Z,96023.69
2023-05-11T12:32:29.258Z,96025.34
2023-05-11T12:35:02.277Z,96024.69
2023-05-11T12:37:31.556Z,96024.53
2023-05-11T12:40:00.586Z,96025.59
2023-05-11T12:42:29.125Z,96014.72
2023-05-11T12:44:58.978Z,96017.66
2023-05-11T12:47:27.598Z,96021.13
2023-05-11T12:49:56.177Z,96017.38
2023-05-11T12:52:25.996Z,96018.00
2023-05-11T12:55:00.242Z,96016.75
2023-05-11T12:57:31.014Z,96014.72
2023-05-11T13:00:12.852Z,96010.16
2023-05-11T13:02:51.167Z,96016.09
2023-05-11T13:05:24.122Z,96013.34
2023-05-11T13:07:58.792Z,96011.31
2023-05-11T13:10:27.935Z,96011.16
2023-05-11T13:12:56.849Z,96011.09
2023-05-11T13:15:28.504Z,96004.88
2023-05-11T13:17:59.278Z,96001.59
2023-05-11T13:20:29.791Z,95998.00
2023-05-11T13:23:06.572Z,95998.06
2023-05-11T13:25:37.349Z,95997.34
2023-05-11T13:28:05.921Z,95996.59
2023-05-11T13:30:36.916Z,95990.91
2023-05-11T13:33:05.411Z,95994.00
2023-05-11T13:35:33.849Z,95988.50
2023-05-11T13:38:07.370Z,95995.25
2023-05-11T13:40:37.346Z,95991.22
2023-05-11T13:43:14.528Z,95991.66
2023-05-11T13:45:44.432Z,95993.97
2023-05-11T13:48:12.798Z,95997.44
2023-05-11T13:50:41.419Z,95998.63
2023-05-11T13:53:11.643Z,95992.75
2023-05-11T13:55:43.476Z,95994.84
2023-05-11T13:58:12.063Z,95993.19
2023-05-11T14:00:41.072Z,95995.66
2023-05-11T14:03:11.580Z,95991.81
2023-05-11T14:05:41.267Z,95997.31
2023-05-11T14:08:09.793Z,96001.34
2023-05-11T14:10:38.276Z,95989.72
2023-05-11T14:13:07.184Z,96001.16
2023-05-11T14:15:38.454Z,95994.84
2023-05-11T14:18:08.128Z,95991.56
2023-05-11T14:20:40.753Z,95986.28
2023-05-11T14:23:09.457Z,95991.38
2023-05-11T14:25:38.094Z,95982.59
2023-05-11T14:28:06.831Z,95982.31
2023-05-11T14:30:37.857Z,95981.91
2023-05-11T14:33:06.427Z,95982.28
2023-05-11T14:35:35.717Z,95986.94
2023-05-11T14:38:06.970Z,95976.16
2023-05-11T14:40:36.532Z,95982.09
2023-05-11T14:43:05.181Z,95989.03
2023-05-11T14:45:33.826Z,95980.25
2023-05-11T14:48:02.354Z,95985.19
2023-05-11T14:50:30.782Z,95979.66
2023-05-11T14:52:59.208Z,95977.22
2023-05-11T14:55:29.181Z,95982.31
2023-05-11T14:57:57.566Z,95984.16
2023-05-11T15:00:26.817Z,95977.78
2023-05-11T15:02:55.218Z,95980.44
2023-05-11T15:05:23.685Z,95982.63
2023-05-11T15:07:52.273Z,95980.81
2023-05-11T15:10:20.682Z,95986.31
2023-05-11T15:12:54.162Z,95983.25
2023-05-11T15:15:22.554Z,95982.44
2023-05-11T15:17:51.041Z,95982.84
2023-05-11T15:20:19.860Z,95985.88
2023-05-11T15:22:48.218Z,95989.72
2023-05-11T15:25:16.866Z,95986.63
2023-05-11T15:27:45.773Z,95989.81
2023-05-11T15:30:16.520Z,95982.25
2023-05-11T15:32:45.228Z,95981.63
2023-05-11T15:35:14.972Z,95986.09
2023-05-11T15:37:43.382Z,95986.91
2023-05-11T15:40:13.939Z,95991.19
2023-05-11T15:42:42.602Z,95989.75
2023-05-11T15:45:11.118Z,95986.47
2023-05-11T15:47:40.897Z,95990.75
2023-05-11T15:50:09.483Z,95987.47
2023-05-11T15:52:40.251Z,95984.81
2023-05-11T15:55:09.381Z,95987.47
2023-05-11T15:57:39.084Z,95981.53
2023-05-11T16:00:10.355Z,95984.38
2023-05-11T16:02:40.808Z,95980.25
2023-05-11T16:05:09.896Z,95980.06
2023-05-11T16:07:40.494Z,95979.91
2023-05-11T16:10:09.969Z,95977.69
2023-05-11T16:12:38.953Z,95987.28
2023-05-11T16:15:08.949Z,95977.88
2023-05-11T16:17:39.528Z,95987.84
2023-05-11T16:20:10.375Z,95985.38
2023-05-11T16:22:39.926Z,95982.72
2023-05-11T16:25:09.255Z,95987.84
2023-05-11T16:27:39.237Z,95981.34
2023-05-11T16:30:22.333Z,95983.81
2023-05-11T16:32:52.751Z,95985.44
2023-05-11T16:35:22.686Z,95973.56
2023-05-11T16:37:52.525Z,95982.53
2023-05-11T16:40:21.732Z,95978.25
2023-05-11T16:42:50.334Z,95977.59
2023-05-11T16:45:18.778Z,95979.63
2023-05-11T16:47:47.245Z,95980.66
2023-05-11T16:50:16.585Z,95979.81
2023-05-11T16:52:46.548Z,95967.41
2023-05-11T16:55:16.001Z,95978.34
2023-05-11T16:57:45.002Z,95970.59
2023-05-11T17:00:15.310Z,95967.28
2023-05-11T17:02:43.777Z,95966.47
2023-05-11T17:05:13.643Z,95968.28
2023-05-11T17:07:44.831Z,95964.28
2023-05-11T17:10:14.629Z,95969.59
2023-05-11T17:12:43.023Z,95965.09
2023-05-11T17:15:11.864Z,95971.84
2023-05-11T17:17:41.095Z,95968.38
2023-05-11T17:20:13.802Z,95965.28
2023-05-11T17:22:42.203Z,95966.47
2023-05-11T17:25:11.042Z,95963.66
2023-05-11T17:27:42.151Z,95966.94
2023-05-11T17:30:11.390Z,95967.56
2023-05-11T17:32:46.657Z,95967.41
2023-05-11T17:35:15.649Z,95967.41
2023-05-11T17:37:44.022Z,95966.13
2023-05-11T17:40:13.142Z,95967.28
2023-05-11T17:42:43.344Z,95971.13
2023-05-11T17:45:12.892Z,95968.47
2023-05-11T17:47:41.334Z,95970.47
2023-05-11T17:50:10.581Z,95965.19
2023-05-11T17:52:40.088Z,95966.19
2023-05-11T17:55:10.900Z,95964.56
2023-05-11T17:57:41.278Z,95969.69
2023-05-11T18:00:12.609Z,95964.38
2023-05-11T18:02:41.247Z,95971.03
2023-05-11T18:05:10.241Z,95969.56
2023-05-11T18:07:39.881Z,95969.75
2023-05-11T18:10:10.297Z,95974.25
2023-05-11T18:12:39.057Z,95971.41
2023-05-11T18:15:08.405Z,95971.59
2023-05-11T18:17:40.350Z,95972.63
2023-05-11T18:20:10.293Z,95976.25
2023-05-11T18:22:41.060Z,95966.66
2023-05-11T18:25:09.915Z,95970.31
2023-05-11T18:27:40.757Z,95973.59
2023-05-11T18:30:10.169Z,95971.94
2023-05-11T18:32:42.506Z,95978.44
2023-05-11T18:35:10.878Z,95978.84
2023-05-11T18:37:41.867Z,95978.00
2023-05-11T18:40:11.191Z,95983.28
2023-05-11T18:42:42.354Z,95977.63
2023-05-11T18:45:11.894Z,95979.47
2023-05-11T18:47:46.266Z,95976.19
2023-05-11T18:50:15.057Z,95983.28
2023-05-11T18:52:43.505Z,95977.00
2023-05-11T18:55:11.877Z,95977.34
2023-05-11T18:57:49.180Z,95976.47
2023-05-11T19:00:18.415Z,95978.03
2023-05-11T19:02:49.043Z,95977.81
2023-05-11T19:05:17.680Z,95982.47
2023-05-11T19:07:46.058Z,95988.78
2023-05-11T19:10:14.687Z,95985.50
2023-05-11T19:12:43.049Z,95991.63
2023-05-11T19:15:11.678Z,95992.66
2023-05-11T19:17:42.112Z,95987.53
2023-05-11T19:20:12.875Z,95994.84
2023-05-11T19:22:41.794Z,95986.44
2023-05-11T19:25:11.025Z,95985.63
2023-05-11T19:27:41.943Z,95992.53
2023-05-11T19:30:10.935Z,95990.69
2023-05-11T19:32:42.281Z,95993.56
2023-05-11T19:35:14.699Z,95992.06
2023-05-11T19:37:43.282Z,95994.72
2023-05-11T19:40:43.979Z,95992.38
2023-05-11T19:43:02.831Z,95993.34
2023-05-11T19:45:33.210Z,95995.34
2023-05-11T19:48:01.741Z,95995.53
2023-05-11T19:50:31.659Z,95999.84
2023-05-11T19:53:00.032Z,95994.38
2023-05-11T19:55:28.435Z,96000.47
2023-05-11T19:58:03.508Z,95999.66
2023-05-11T20:00:32.201Z,96002.50
2023-05-11T20:03:01.151Z,95993.91
2023-05-11T20:05:31.060Z,96000.84
2023-05-11T20:07:59.579Z,96002.66
2023-05-11T20:10:28.055Z,96000.19
2023-05-11T20:12:57.729Z,95999.38
2023-05-11T20:15:26.248Z,95996.09
2023-05-11T20:17:54.622Z,95996.09
2023-05-11T20:20:23.081Z,95987.16
2023-05-11T20:22:53.071Z,95993.28
2023-05-11T20:25:21.823Z,95995.53
2023-05-11T20:28:00.913Z,95997.19
2023-05-11T20:30:29.297Z,95986.44
2023-05-11T20:35:29.155Z,95994.19
2023-05-11T20:37:58.919Z,95983.94
2023-05-11T20:40:27.393Z,95983.13
2023-05-11T20:42:55.812Z,95987.06
2023-05-11T20:45:24.186Z,95982.28
2023-05-11T20:47:52.769Z,95976.19
2023-05-11T20:50:21.872Z,95973.19
2023-05-11T20:52:50.421Z,95980.75
2023-05-11T20:55:22.875Z,95976.09
2023-05-11T20:57:51.257Z,95974.47
2023-05-11T21:00:20.691Z,95969.16
2023-05-11T21:02:49.338Z,95975.28
2023-05-11T21:05:23.556Z,95979.41
2023-05-11T21:07:53.919Z,95985.88
2023-05-11T21:10:24.024Z,95976.09
2023-05-11T21:12:52.404Z,95975.44
2023-05-11T21:15:20.785Z,95981.94
2023-05-11T21:17:50.284Z,95978.00
2023-05-11T21:20:19.026Z,95976.19
2023-05-11T21:22:47.630Z,95976.00
2023-05-11T21:25:16.093Z,95975.03
2023-05-11T21:27:45.925Z,95975.03
2023-05-11T21:30:15.127Z,95973.53
2023-05-11T21:32:43.838Z,95979.00
2023-05-11T21:35:14.922Z,95977.19
2023-05-11T21:37:49.100Z,95973.53
2023-05-11T21:40:17.990Z,95976.34
2023-05-11T21:42:52.395Z,95967.97
2023-05-11T21:45:21.433Z,95974.91
2023-05-11T21:47:49.937Z,95978.75
2023-05-11T21:50:18.778Z,95976.75
2023-05-11T21:52:47.295Z,95989.16
2023-05-11T21:55:15.772Z,95985.69
2023-05-11T21:57:45.761Z,95975.81
2023-05-11T22:00:18.798Z,95986.59
2023-05-11T22:02:47.481Z,95986.78
2023-05-11T22:05:16.501Z,95988.13
2023-05-11T22:07:45.007Z,95987.22
2023-05-11T22:10:13.627Z,95992.41
2023-05-11T22:12:43.567Z,95990.00
2023-05-11T22:15:13.059Z,95996.38
2023-05-11T22:17:43.613Z,96005.69
2023-05-11T22:20:12.318Z,96002.59
2023-05-11T22:22:49.942Z,95997.94
2023-05-11T22:25:18.370Z,95997.94
2023-05-11T22:27:46.802Z,95993.81
2023-05-11T22:30:15.422Z,95992.34
2023-05-11T22:32:51.084Z,95988.88
2023-05-11T22:35:19.502Z,95992.19
2023-05-11T22:37:48.136Z,95990.69
2023-05-11T22:40:16.766Z,95990.25
2023-05-11T22:42:45.277Z,95992.91
2023-05-11T22:45:13.727Z,95997.47
2023-05-11T22:47:43.280Z,95988.50
2023-05-11T22:50:13.215Z,95988.88
2023-05-11T22:52:43.862Z,95990.25
2023-05-11T22:55:12.318Z,95989.31
2023-05-11T22:57:40.664Z,95992.28
2023-05-11T23:00:10.813Z,95990.13
2023-05-11T23:02:40.371Z,95995.88
2023-05-11T23:05:09.578Z,95988.94
2023-05-11T23:07:39.329Z,95991.66
2023-05-11T23:10:08.890Z,95992.03
2023-05-11T23:12:37.311Z,95994.03
2023-05-11T23:15:06.811Z,95988.91
2023-05-11T23:17:40.781Z,95985.78
2023-05-11T23:20:10.412Z,95986.78
2023-05-11T23:22:40.141Z,95989.97
2023-05-11T23:25:10.479Z,95988.50
2023-05-11T23:27:39.030Z,95984.91
2023-05-11T23:30:09.102Z,95983.59
2023-05-11T23:32:37.782Z,95983.44
2023-05-11T23:35:06.994Z,95990.06
2023-05-11T23:37:35.535Z,95990.63
2023-05-11T23:40:05.888Z,95985.50
2023-05-11T23:42:34.262Z,95982.38
2023-05-11T23:45:04.570Z,95984.03
2023-05-11T23:47:33.036Z,95988.63
2023-05-11T23:50:02.124Z,95980.53
2023-05-11T23:52:30.776Z,95987.63
2023-05-11T23:54:59.138Z,95987.16
2023-05-11T23:57:28.859Z,95981.03
2023-05-11T23:59:57.447Z,95987.50
